Time;durP1;ratioP1;P1;durP2;ratioP2;P2;SDS_P1;SDS_P2;PMS_P1;PMS_P2;Temp;Humidity;BMP_temperature;BMP_pressure;BME280_temperature;BME280_humidity;BME280_pressure;Samples;Min_cycle;Max_cycle;Signal;HPM_P1;HPM_P2
2022/03/13 00:00:20;;;;;;;0.40;0.40;;;2.50;66.80;;;;;;4975222;28;20426;-72
2022/03/13 00:02:46;;;;;;;0.43;0.43;;;2.50;67.20;;;;;;4973802;28;20051;-72
2022/03/13 00:05:14;;;;;;;0.50;0.50;;;2.50;67.00;;;;;;4974883;28;20521;-72
2022/03/13 00:07:42;;;;;;;0.68;0.68;;;2.50;66.60;;;;;;4974762;28;20030;-72
2022/03/13 00:10:08;;;;;;;0.75;0.75;;;2.60;66.40;;;;;;4957567;28;20122;-72
2022/03/13 00:12:35;;;;;;;0.82;0.82;;;2.40;66.50;;;;;;4973552;28;20023;-72
2022/03/13 00:15:03;;;;;;;0.45;0.45;;;2.20;67.30;;;;;;4974556;28;20023;-72
2022/03/13 00:17:30;;;;;;;0.55;0.55;;;2.30;67.40;;;;;;4974645;28;20034;-72
2022/03/13 00:19:59;;;;;;;0.98;0.98;;;2.30;67.90;;;;;;4973340;28;20030;-72
2022/03/13 00:22:29;;;;;;;3.42;3.03;;;2.30;68.10;;;;;;4974632;28;20077;-72
2022/03/13 00:24:56;;;;;;;1.60;1.50;;;2.50;67.80;;;;;;4974517;28;20026;-72
2022/03/13 00:27:22;;;;;;;0.52;0.52;;;2.50;67.00;;;;;;4974406;28;20046;-72
2022/03/13 00:29:48;;;;;;;0.60;0.60;;;2.60;66.90;;;;;;4957198;28;20023;-72
2022/03/13 00:32:14;;;;;;;2.17;2.08;;;2.60;66.50;;;;;;4973119;28;20443;-72
2022/03/13 00:34:40;;;;;;;2.22;2.13;;;2.60;67.00;;;;;;4973006;28;20033;-73
2022/03/13 00:37:06;;;;;;;0.40;0.40;;;2.70;67.20;;;;;;4974314;28;20097;-72
2022/03/13 00:39:32;;;;;;;0.60;0.60;;;2.80;67.10;;;;;;4974363;28;20031;-72
2022/03/13 00:41:57;;;;;;;0.88;0.85;;;2.80;66.70;;;;;;4972942;28;20030;-72
2022/03/13 00:44:23;;;;;;;2.78;1.65;;;2.70;67.00;;;;;;4972840;28;20498;-72
2022/03/13 00:46:49;;;;;;;0.85;0.85;;;2.50;67.40;;;;;;4974071;28;20356;-72
2022/03/13 00:49:15;;;;;;;1.85;1.75;;;2.20;68.70;;;;;;4974438;28;20471;-72
2022/03/13 00:51:40;;;;;;;1.63;1.02;;;2.30;68.90;;;;;;4974121;28;20542;-72
2022/03/13 00:54:06;;;;;;;0.40;0.40;;;2.40;68.10;;;;;;4974025;28;20110;-72
2022/03/13 00:56:32;;;;;;;1.10;1.10;;;2.30;68.10;;;;;;4972628;28;20031;-72
2022/03/13 00:58:58;;;;;;;3.67;1.75;;;2.10;69.30;;;;;;4973687;28;20490;-72
2022/03/13 01:01:24;;;;;;;0.40;0.40;;;2.30;70.00;;;;;;4973811;28;20031;-72
2022/03/13 01:03:51;;;;;;;0.77;0.77;;;2.20;68.80;;;;;;4972614;28;21660;-72
2022/03/13 01:06:20;;;;;;;0.40;0.40;;;2.20;68.70;;;;;;4973641;28;20030;-72
2022/03/13 01:08:47;;;;;;;0.95;0.95;;;2.00;69.40;;;;;;4974086;28;20037;-72
2022/03/13 01:11:21;;;;;;;0.38;0.38;;;1.80;70.10;;;;;;4973644;28;20114;-72
2022/03/13 01:13:48;;;;;;;0.65;0.52;;;1.80;71.50;;;;;;4973667;28;20030;-72
2022/03/13 01:16:24;;;;;;;0.85;0.85;;;1.90;71.30;;;;;;4972350;28;20034;-72
2022/03/13 01:18:53;;;;;;;2.58;2.03;;;2.20;71.00;;;;;;4972455;28;20043;-72
2022/03/13 01:21:19;;;;;;;1.48;1.45;;;2.20;70.40;;;;;;4973539;28;20479;-72
2022/03/13 01:23:57;;;;;;;1.73;1.63;;;2.30;70.10;;;;;;4972363;28;20429;-72
2022/03/13 01:26:23;;;;;;;1.77;1.67;;;2.60;69.40;;;;;;4973417;28;20061;-72
2022/03/13 01:28:53;;;;;;;0.73;0.70;;;2.70;68.60;;;;;;4973542;28;20033;-72
2022/03/13 01:31:22;;;;;;;0.40;0.40;;;2.70;68.20;;;;;;4972215;28;20039;-72
2022/03/13 01:33:48;;;;;;;0.30;0.30;;;2.60;68.40;;;;;;4972249;28;20027;-72
2022/03/13 01:36:14;;;;;;;1.52;1.45;;;2.50;69.10;;;;;;4971954;28;20046;-72
2022/03/13 01:38:40;;;;;;;1.00;0.95;;;2.30;69.00;;;;;;4973463;28;20031;-72
2022/03/13 01:41:07;;;;;;;0.40;0.40;;;2.30;69.20;;;;;;4972004;28;20023;-72
2022/03/13 01:43:33;;;;;;;0.40;0.40;;;2.20;69.70;;;;;;4973260;28;20030;-72
2022/03/13 01:45:59;;;;;;;0.40;0.40;;;2.20;69.90;;;;;;4972019;28;20523;-72
2022/03/13 01:48:26;;;;;;;2.58;2.45;;;2.30;70.50;;;;;;4973255;28;20077;-72
2022/03/13 01:50:52;;;;;;;19.20;4.80;;;2.40;70.30;;;;;;4973275;28;20034;-72
2022/03/13 01:53:20;;;;;;;0.40;0.40;;;2.50;69.80;;;;;;4973240;28;20037;-73
2022/03/13 01:55:49;;;;;;;0.52;0.52;;;2.70;69.10;;;;;;4973068;28;20585;-72
2022/03/13 01:58:16;;;;;;;5.05;1.27;;;3.00;68.00;;;;;;4971980;28;20069;-73
2022/03/13 02:00:42;;;;;;;0.40;0.40;;;2.90;67.30;;;;;;4973009;28;20023;-73
2022/03/13 02:03:07;;;;;;;0.40;0.40;;;3.00;67.10;;;;;;4972962;28;20078;-72
2022/03/13 02:05:35;;;;;;;0.55;0.55;;;3.10;66.90;;;;;;4971797;28;20038;-73
2022/03/13 02:08:11;;;;;;;0.40;0.40;;;3.10;66.20;;;;;;4973046;28;20049;-73
2022/03/13 02:10:37;;;;;;;0.40;0.40;;;3.10;66.40;;;;;;4973057;28;20030;-72
2022/03/13 02:13:03;;;;;;;5.00;4.57;;;2.80;66.90;;;;;;4976085;28;20026;-72
2022/03/13 02:15:31;;;;;;;0.50;0.50;;;2.90;67.10;;;;;;4976839;28;20035;-72
2022/03/13 02:18:01;;;;;;;0.93;0.93;;;2.60;67.70;;;;;;4976840;28;20035;-72
2022/03/13 02:20:27;;;;;;;1.10;1.10;;;2.70;66.60;;;;;;4976765;28;20487;-72
2022/03/13 02:23:00;;;;;;;0.68;0.68;;;2.60;67.20;;;;;;4976777;28;20109;-72
2022/03/13 02:25:31;;;;;;;0.70;0.70;;;2.60;67.20;;;;;;4975428;28;20102;-72
2022/03/13 02:27:58;;;;;;;0.50;0.50;;;2.60;67.10;;;;;;4975442;28;20023;-72
2022/03/13 02:30:27;;;;;;;0.40;0.40;;;2.50;66.90;;;;;;4976593;28;20034;-72
2022/03/13 02:32:53;;;;;;;0.40;0.40;;;2.50;67.50;;;;;;4975310;28;20105;-72
2022/03/13 02:35:19;;;;;;;0.75;0.75;;;2.30;67.40;;;;;;4975244;28;20027;-72
2022/03/13 02:37:46;;;;;;;0.40;0.40;;;2.30;68.20;;;;;;4976495;28;20038;-72
2022/03/13 02:40:30;;;;;;;0.40;0.40;;;2.40;68.20;;;;;;4976335;28;20027;-72
2022/03/13 02:42:56;;;;;;;0.77;0.77;;;2.50;67.60;;;;;;4975210;28;20039;-72
2022/03/13 02:45:34;;;;;;;0.40;0.40;;;2.60;67.50;;;;;;4976280;28;20027;-72
2022/03/13 02:48:01;;;;;;;0.30;0.30;;;2.70;66.40;;;;;;4976409;28;20099;-72
2022/03/13 02:50:27;;;;;;;1.08;0.98;;;2.80;65.90;;;;;;4975071;28;20058;-72
2022/03/13 02:52:53;;;;;;;0.50;0.50;;;2.90;63.90;;;;;;4976245;28;20533;-72
2022/03/13 02:55:19;;;;;;;0.38;0.38;;;2.70;62.70;;;;;;4974811;28;20027;-72
2022/03/13 02:57:44;;;;;;;0.82;0.82;;;2.70;63.50;;;;;;4974773;28;20023;-72
2022/03/13 03:00:11;;;;;;;2.83;0.73;;;2.80;63.60;;;;;;4975997;28;20058;-72
2022/03/13 03:02:37;;;;;;;0.68;0.68;;;2.70;63.70;;;;;;4976268;28;20097;-72
2022/03/13 03:05:07;;;;;;;1.48;1.38;;;2.60;63.80;;;;;;4975993;28;20018;-73
2022/03/13 03:07:34;;;;;;;0.45;0.45;;;2.60;64.50;;;;;;4974578;28;20521;-72
2022/03/13 03:10:00;;;;;;;0.40;0.40;;;2.50;64.80;;;;;;4991064;28;20026;-72
2022/03/13 03:12:27;;;;;;;0.50;0.50;;;2.50;64.80;;;;;;4975971;28;20031;-72
2022/03/13 03:14:54;;;;;;;0.40;0.40;;;2.50;64.80;;;;;;4975735;28;20097;-72
2022/03/13 03:17:20;;;;;;;0.30;0.30;;;2.50;64.70;;;;;;4975670;28;20023;-72
2022/03/13 03:19:45;;;;;;;1.85;1.75;;;2.30;65.00;;;;;;4976134;28;20035;-72
2022/03/13 03:22:12;;;;;;;0.95;0.95;;;2.20;65.70;;;;;;4975370;28;20027;-72
2022/03/13 03:24:38;;;;;;;0.40;0.40;;;2.30;65.80;;;;;;4976022;28;20343;-72
2022/03/13 03:27:04;;;;;;;0.40;0.40;;;2.30;65.20;;;;;;4975571;28;20034;-72
2022/03/13 03:29:30;;;;;;;0.70;0.70;;;2.40;64.80;;;;;;4975576;28;20042;-72
2022/03/13 03:31:57;;;;;;;0.57;0.57;;;2.40;64.90;;;;;;4975546;28;20026;-72
2022/03/13 03:34:25;;;;;;;0.40;0.40;;;2.40;64.50;;;;;;4975853;28;20490;-72
2022/03/13 03:36:53;;;;;;;0.40;0.40;;;2.40;64.20;;;;;;4974145;28;20076;-72
2022/03/13 03:39:20;;;;;;;0.57;0.57;;;2.40;64.60;;;;;;4974111;28;20023;-72
2022/03/13 03:41:47;;;;;;;0.55;0.55;;;2.30;64.30;;;;;;4974086;28;20026;-72
2022/03/13 03:44:14;;;;;;;0.57;0.57;;;2.30;64.80;;;;;;4975210;28;20041;-72
2022/03/13 03:46:41;;;;;;;0.50;0.50;;;2.10;64.00;;;;;;4975130;28;20105;-72
2022/03/13 03:49:07;;;;;;;4.18;1.58;;;2.00;64.40;;;;;;4975333;28;20390;-72
2022/03/13 03:51:33;;;;;;;0.68;0.68;;;2.10;65.10;;;;;;4975076;28;20109;-72
2022/03/13 03:54:00;;;;;;;0.73;0.73;;;2.00;64.80;;;;;;4975060;28;20479;-72
2022/03/13 03:56:26;;;;;;;0.40;0.40;;;2.20;64.30;;;;;;4974985;28;20027;-72
2022/03/13 03:58:52;;;;;;;0.80;0.80;;;2.10;64.70;;;;;;4973734;28;20046;-72
2022/03/13 04:01:18;;;;;;;0.60;0.55;;;2.30;64.90;;;;;;4973668;28;20050;-73
2022/03/13 04:03:44;;;;;;;0.40;0.40;;;2.50;64.20;;;;;;4974977;28;20371;-72
2022/03/13 04:06:10;;;;;;;0.32;0.32;;;2.40;64.20;;;;;;4957520;28;20031;-72
2022/03/13 04:08:36;;;;;;;0.45;0.45;;;2.20;65.10;;;;;;4974895;28;20030;-72
2022/03/13 04:11:02;;;;;;;0.70;0.70;;;2.10;65.60;;;;;;4974683;28;20082;-72
2022/03/13 04:13:36;;;;;;;1.95;1.85;;;2.20;65.70;;;;;;4974752;28;20023;-72
2022/03/13 04:16:02;;;;;;;0.40;0.40;;;2.20;65.70;;;;;;4973398;28;20455;-72
2022/03/13 04:18:28;;;;;;;3.75;3.50;;;2.20;66.30;;;;;;4974595;28;20027;-72
2022/03/13 04:20:54;;;;;;;0.82;0.82;;;2.00;66.20;;;;;;4974548;28;20045;-72
2022/03/13 04:23:19;;;;;;;0.35;0.35;;;2.00;67.20;;;;;;4974678;28;20019;-72
2022/03/13 04:25:45;;;;;;;1.40;1.30;;;1.80;67.30;;;;;;4973258;28;20390;-72
2022/03/13 04:28:11;;;;;;;2.08;1.58;;;1.80;68.90;;;;;;4989513;28;20030;-72
2022/03/13 04:30:39;;;;;;;1.67;1.38;;;2.00;69.30;;;;;;4974434;28;20039;-72
2022/03/13 04:33:06;;;;;;;1.20;1.10;;;1.90;68.80;;;;;;4989361;28;20122;-72
2022/03/13 04:35:33;;;;;;;0.43;0.43;;;1.90;69.10;;;;;;4972205;28;20034;-72
2022/03/13 04:37:59;;;;;;;5.00;2.08;;;1.70;69.50;;;;;;4972986;28;20034;-72
2022/03/13 04:40:25;;;;;;;0.43;0.43;;;1.50;70.40;;;;;;4974092;28;20038;-72
2022/03/13 04:42:51;;;;;;;0.40;0.40;;;1.60;71.10;;;;;;4974249;28;20062;-72
2022/03/13 04:45:18;;;;;;;0.65;0.65;;;1.60;70.80;;;;;;4974268;28;20121;-72
2022/03/13 04:47:44;;;;;;;14.02;1.50;;;1.80;70.90;;;;;;4973976;28;20467;-72
2022/03/13 04:50:10;;;;;;;0.50;0.50;;;1.80;70.00;;;;;;4972784;28;20092;-73
2022/03/13 04:52:37;;;;;;;1.15;1.15;;;1.40;70.50;;;;;;4973989;28;20033;-72
2022/03/13 04:55:05;;;;;;;0.40;0.40;;;1.50;71.60;;;;;;4972725;28;20162;-72
2022/03/13 04:57:30;;;;;;;0.40;0.40;;;1.70;70.70;;;;;;4973912;28;20027;-73
2022/03/13 04:59:56;;;;;;;0.73;0.73;;;1.80;69.90;;;;;;4973954;28;20377;-73
2022/03/13 05:02:22;;;;;;;0.40;0.40;;;1.60;69.90;;;;;;4973858;28;20021;-73
2022/03/13 05:04:47;;;;;;;0.30;0.30;;;1.60;71.10;;;;;;4972534;28;20050;-73
2022/03/13 05:07:13;;;;;;;3.60;0.85;;;1.60;71.60;;;;;;4973732;28;20501;-73
2022/03/13 05:09:39;;;;;;;0.40;0.40;;;1.70;71.80;;;;;;4973768;28;20285;-73
2022/03/13 05:12:09;;;;;;;0.40;0.40;;;1.80;71.50;;;;;;4973744;28;20082;-73
2022/03/13 05:14:36;;;;;;;0.93;0.93;;;2.00;70.40;;;;;;4988632;28;20041;-73
2022/03/13 05:17:03;;;;;;;0.40;0.40;;;2.00;69.80;;;;;;4988443;28;20099;-73
2022/03/13 05:19:29;;;;;;;0.40;0.40;;;1.90;69.60;;;;;;4972393;28;20038;-73
2022/03/13 05:21:55;;;;;;;0.40;0.40;;;1.90;70.20;;;;;;4973759;28;20023;-73
2022/03/13 05:24:20;;;;;;;0.40;0.40;;;1.90;70.30;;;;;;4973510;28;20023;-73
2022/03/13 05:26:46;;;;;;;0.68;0.68;;;2.00;70.30;;;;;;4973432;28;20023;-73
2022/03/13 05:29:12;;;;;;;0.73;0.73;;;1.80;70.60;;;;;;4973605;28;20023;-73
2022/03/13 05:31:39;;;;;;;1.73;0.57;;;1.70;71.00;;;;;;4973236;28;20093;-73
2022/03/13 05:34:05;;;;;;;0.30;0.30;;;1.70;71.70;;;;;;5019489;23;20045;-76
2022/03/13 05:36:31;;;;;;;0.30;0.30;;;1.80;71.70;;;;;;5012953;28;20022;-76
2022/03/13 05:38:57;;;;;;;1.75;0.73;;;1.90;71.10;;;;;;5028268;28;20461;-76
2022/03/13 05:41:26;;;;;;;1.23;1.13;;;1.80;71.10;;;;;;5011680;28;20037;-77
2022/03/13 05:43:52;;;;;;;0.32;0.32;;;1.90;71.00;;;;;;4995081;28;20026;-77
2022/03/13 05:46:18;;;;;;;0.60;0.60;;;1.90;71.40;;;;;;5012707;28;20381;-76
2022/03/13 05:48:44;;;;;;;0.40;0.40;;;1.90;71.70;;;;;;5028048;28;20093;-76
2022/03/13 05:51:10;;;;;;;0.70;0.70;;;2.00;71.50;;;;;;5013064;28;20377;-76
2022/03/13 05:53:35;;;;;;;0.45;0.45;;;2.50;70.90;;;;;;5012637;28;20030;-76
2022/03/13 05:56:01;;;;;;;2.50;1.40;;;2.70;69.80;;;;;;5011590;28;20034;-76
2022/03/13 05:58:27;;;;;;;1.17;1.17;;;2.90;69.30;;;;;;5011591;28;20113;-76
2022/03/13 06:01:08;;;;;;;0.40;0.40;;;3.00;68.30;;;;;;5012661;28;20026;-77
2022/03/13 06:03:34;;;;;;;0.40;0.40;;;3.00;68.00;;;;;;5011654;28;20056;-77
2022/03/13 06:06:03;;;;;;;0.30;0.30;;;3.20;67.80;;;;;;5011550;28;20050;-77
2022/03/13 06:08:30;;;;;;;0.40;0.40;;;3.40;66.60;;;;;;5012617;28;20037;-77
2022/03/13 06:10:57;;;;;;;0.30;0.30;;;3.40;66.50;;;;;;5012667;28;20030;-76
2022/03/13 06:13:24;;;;;;;0.40;0.40;;;3.40;67.80;;;;;;5012648;28;20477;-76
2022/03/13 06:15:50;;;;;;;0.40;0.40;;;3.60;67.20;;;;;;4994860;28;20124;-77
2022/03/13 06:18:16;;;;;;;0.30;0.30;;;3.60;67.70;;;;;;5011323;28;20029;-77
2022/03/13 06:20:42;;;;;;;1.98;1.42;;;3.30;69.00;;;;;;5011265;28;20022;-77
2022/03/13 06:23:09;;;;;;;0.63;0.63;;;3.50;69.10;;;;;;5011250;28;20068;-76
2022/03/13 06:25:35;;;;;;;0.30;0.30;;;3.60;68.70;;;;;;5011261;28;20152;-77
2022/03/13 06:28:01;;;;;;;0.40;0.40;;;3.70;68.70;;;;;;5012843;28;20363;-77
2022/03/13 06:30:28;;;;;;;0.75;0.75;;;3.90;69.00;;;;;;5012584;28;20079;-76
2022/03/13 06:32:55;;;;;;;0.40;0.40;;;3.60;70.30;;;;;;5012186;28;20112;-77
2022/03/13 06:35:23;;;;;;;0.73;0.73;;;3.70;70.20;;;;;;5012341;28;20025;-77
2022/03/13 06:37:51;;;;;;;0.40;0.40;;;3.80;69.70;;;;;;4994550;28;20041;-76
2022/03/13 06:40:19;;;;;;;0.30;0.30;;;4.00;68.80;;;;;;5011057;28;20026;-76
2022/03/13 06:42:46;;;;;;;0.30;0.30;;;4.20;68.50;;;;;;5011525;28;20477;-76
2022/03/13 06:45:13;;;;;;;0.30;0.30;;;4.30;69.00;;;;;;5027568;28;20014;-76
2022/03/13 06:47:40;;;;;;;0.30;0.30;;;4.50;69.00;;;;;;5012196;28;20437;-77
2022/03/13 06:50:07;;;;;;;0.30;0.30;;;4.60;67.80;;;;;;4994651;28;20438;-76
2022/03/13 06:52:33;;;;;;;0.25;0.25;;;4.60;67.80;;;;;;5012260;28;20029;-76
2022/03/13 06:54:58;;;;;;;0.38;0.38;;;4.70;67.30;;;;;;5012253;28;20084;-76
2022/03/13 06:57:24;;;;;;;1.48;1.38;;;4.70;66.60;;;;;;5011321;28;20033;-76
2022/03/13 06:59:50;;;;;;;0.30;0.30;;;4.90;65.20;;;;;;5014375;28;20030;-76
2022/03/13 07:02:16;;;;;;;0.30;0.30;;;5.00;64.80;;;;;;5014409;28;20026;-76
2022/03/13 07:04:41;;;;;;;0.30;0.30;;;5.10;64.10;;;;;;5015768;28;20018;-77
2022/03/13 07:07:07;;;;;;;2.03;1.75;;;5.20;62.60;;;;;;5015729;28;20018;-76
2022/03/13 07:09:33;;;;;;;0.40;0.40;;;5.40;61.50;;;;;;5014426;28;20029;-76
2022/03/13 07:11:59;;;;;;;3.10;2.83;;;5.50;61.00;;;;;;5014542;28;20041;-76
2022/03/13 07:14:25;;;;;;;0.30;0.30;;;5.60;61.00;;;;;;5015518;28;20018;-77
2022/03/13 07:16:51;;;;;;;0.30;0.30;;;5.70;60.90;;;;;;5015541;28;20417;-76
2022/03/13 07:19:17;;;;;;;0.57;0.57;;;5.90;60.50;;;;;;5015585;28;20022;-77
2022/03/13 07:21:44;;;;;;;0.30;0.30;;;6.00;59.10;;;;;;5015523;28;20407;-76
2022/03/13 07:24:10;;;;;;;3.92;0.70;;;6.10;58.80;;;;;;5015321;28;20033;-77
2022/03/13 07:26:36;;;;;;;0.30;0.30;;;6.20;58.50;;;;;;5015475;28;20018;-76
2022/03/13 07:29:02;;;;;;;0.20;0.20;;;6.30;58.10;;;;;;5015362;28;20359;-77
2022/03/13 07:31:30;;;;;;;0.30;0.30;;;6.30;58.10;;;;;;5015208;28;20067;-77
2022/03/13 07:33:56;;;;;;;0.60;0.60;;;6.40;58.30;;;;;;5013874;28;20037;-77
2022/03/13 07:36:22;;;;;;;0.30;0.30;;;6.40;58.30;;;;;;5013692;28;20058;-75
2022/03/13 07:38:48;;;;;;;0.30;0.30;;;6.50;58.20;;;;;;5014847;28;20101;-77
2022/03/13 07:41:14;;;;;;;0.60;0.60;;;6.60;58.10;;;;;;5013572;28;20469;-77
2022/03/13 07:43:39;;;;;;;0.30;0.30;;;6.70;57.10;;;;;;5014776;28;20028;-77
2022/03/13 07:46:05;;;;;;;0.38;0.38;;;6.70;56.50;;;;;;5014940;28;20466;-77
2022/03/13 07:48:34;;;;;;;0.30;0.30;;;6.80;56.20;;;;;;5014859;28;20384;-77
2022/03/13 07:51:01;;;;;;;0.43;0.43;;;6.90;55.70;;;;;;5013222;28;20116;-77
2022/03/13 07:53:28;;;;;;;1.80;1.70;;;6.90;55.60;;;;;;5014669;28;20022;-77
2022/03/13 07:55:55;;;;;;;0.30;0.30;;;6.90;56.10;;;;;;5014572;28;20029;-77
2022/03/13 07:58:21;;;;;;;0.75;0.75;;;7.00;56.50;;;;;;5013289;28;20030;-77
2022/03/13 08:00:47;;;;;;;0.50;0.50;;;7.10;55.90;;;;;;5014367;28;20383;-77
2022/03/13 08:03:14;;;;;;;0.20;0.20;;;7.20;55.50;;;;;;5013114;28;20503;-77
2022/03/13 08:05:40;;;;;;;1.65;1.30;;;7.30;55.00;;;;;;5013364;28;20018;-77
2022/03/13 08:08:05;;;;;;;0.30;0.30;;;7.40;54.80;;;;;;5013000;28;20037;-77
2022/03/13 08:10:31;;;;;;;0.20;0.20;;;7.50;54.60;;;;;;5012068;28;20022;-77
2022/03/13 08:12:57;;;;;;;0.30;0.30;;;7.60;55.40;;;;;;5012842;28;20105;-77
2022/03/13 08:15:23;;;;;;;0.30;0.30;;;7.70;54.70;;;;;;5012955;28;20046;-77
2022/03/13 08:17:48;;;;;;;5.40;4.95;;;7.90;53.60;;;;;;5014308;28;20018;-77
2022/03/13 08:20:14;;;;;;;2.63;1.15;;;8.00;53.20;;;;;;5012891;28;20025;-77
2022/03/13 08:22:41;;;;;;;1.38;0.90;;;8.20;52.50;;;;;;5014040;28;20076;-77
2022/03/13 08:25:07;;;;;;;0.85;0.85;;;8.30;51.40;;;;;;5013826;28;20080;-77
2022/03/13 08:27:34;;;;;;;0.30;0.30;;;8.30;51.90;;;;;;5013941;28;20053;-77
2022/03/13 08:30:01;;;;;;;0.30;0.30;;;8.40;51.90;;;;;;5013822;28;20496;-77
2022/03/13 08:32:27;;;;;;;0.55;0.55;;;8.60;51.40;;;;;;5013761;28;20018;-77
2022/03/13 08:34:53;;;;;;;0.20;0.20;;;8.70;50.50;;;;;;5012335;28;20030;-77
2022/03/13 08:37:19;;;;;;;1.20;1.10;;;8.80;51.40;;;;;;5013606;28;20018;-77
2022/03/13 08:39:45;;;;;;;0.20;0.20;;;8.90;50.30;;;;;;5013483;28;20520;-77
2022/03/13 08:42:10;;;;;;;0.82;0.82;;;9.00;49.30;;;;;;5013542;28;20106;-77
2022/03/13 08:44:36;;;;;;;0.20;0.20;;;9.10;48.90;;;;;;5013868;28;20061;-77
2022/03/13 08:47:02;;;;;;;5.00;0.93;;;9.10;49.00;;;;;;5012141;28;20041;-77
2022/03/13 08:49:29;;;;;;;0.32;0.32;;;9.30;48.10;;;;;;4995792;28;20026;-77
2022/03/13 08:51:55;;;;;;;0.68;0.68;;;9.40;48.30;;;;;;5012362;28;20025;-77
2022/03/13 08:54:21;;;;;;;0.30;0.30;;;9.60;48.20;;;;;;5011902;28;20029;-75
2022/03/13 08:56:48;;;;;;;0.28;0.28;;;9.60;47.70;;;;;;5013056;28;20041;-77
2022/03/13 08:59:20;;;;;;;0.30;0.30;;;9.70;47.40;;;;;;5013189;28;20046;-77
2022/03/13 09:01:47;;;;;;;0.30;0.30;;;9.80;47.60;;;;;;5013104;28;20497;-76
2022/03/13 09:04:13;;;;;;;0.20;0.20;;;9.80;47.00;;;;;;5011731;28;20017;-77
2022/03/13 09:06:39;;;;;;;0.20;0.20;;;9.90;47.20;;;;;;5013314;28;20049;-77
2022/03/13 09:09:08;;;;;;;2.55;0.82;;;10.00;47.10;;;;;;5011680;28;20057;-76
2022/03/13 09:11:34;;;;;;;2.88;2.75;;;10.10;47.00;;;;;;5011797;28;20080;-75
2022/03/13 09:14:00;;;;;;;0.73;0.73;;;10.30;46.20;;;;;;5011857;28;20026;-75
2022/03/13 09:16:26;;;;;;;0.20;0.20;;;10.50;44.90;;;;;;4995827;28;20424;-75
2022/03/13 09:18:53;;;;;;;0.20;0.20;;;10.80;44.70;;;;;;5013604;28;20029;-75
2022/03/13 09:21:19;;;;;;;0.20;0.20;;;11.30;44.10;;;;;;5013047;28;20038;-75
2022/03/13 09:23:45;;;;;;;1.23;1.23;;;11.70;42.50;;;;;;5012522;28;20371;-75
2022/03/13 09:26:11;;;;;;;0.20;0.20;;;12.20;42.00;;;;;;5012686;28;20044;-76
2022/03/13 09:28:37;;;;;;;0.65;0.65;;;12.70;40.80;;;;;;5012489;28;20097;-76
2022/03/13 09:31:03;;;;;;;0.43;0.43;;;13.00;39.70;;;;;;5011459;28;20573;-75
2022/03/13 09:33:29;;;;;;;0.98;0.98;;;13.50;39.50;;;;;;5012419;28;20065;-75
2022/03/13 09:35:55;;;;;;;0.30;0.30;;;13.90;38.40;;;;;;5010995;28;20029;-75
2022/03/13 09:38:21;;;;;;;0.20;0.20;;;14.10;39.10;;;;;;5012568;28;20053;-76
2022/03/13 09:40:46;;;;;;;0.20;0.20;;;14.40;38.30;;;;;;5012449;28;20049;-75
2022/03/13 09:43:12;;;;;;;6.80;2.65;;;14.50;37.30;;;;;;5012303;28;20029;-75
2022/03/13 09:45:38;;;;;;;3.35;1.33;;;14.70;37.50;;;;;;5010964;28;20497;-75
2022/03/13 09:48:08;;;;;;;4.38;3.97;;;14.80;36.60;;;;;;4994659;28;20034;-75
2022/03/13 09:50:34;;;;;;;4.82;4.57;;;15.00;37.00;;;;;;5012271;28;20018;-75
2022/03/13 09:53:00;;;;;;;2.10;1.13;;;15.60;36.50;;;;;;5012247;28;20072;-76
2022/03/13 09:55:27;;;;;;;2.10;1.70;;;15.90;35.50;;;;;;5012059;28;20394;-75
2022/03/13 09:57:53;;;;;;;0.20;0.20;;;15.80;35.00;;;;;;5012337;28;20015;-75
2022/03/13 10:00:25;;;;;;;0.98;0.98;;;15.90;35.90;;;;;;5012165;28;20710;-76
2022/03/13 10:02:53;;;;;;;4.68;1.67;;;16.20;34.60;;;;;;5012344;28;20018;-76
2022/03/13 10:05:20;;;;;;;0.32;0.32;;;16.50;33.50;;;;;;5012077;28;20417;-75
2022/03/13 10:07:53;;;;;;;2.22;1.80;;;16.60;32.90;;;;;;5010862;28;20545;-75
2022/03/13 10:10:21;;;;;;;0.22;0.22;;;16.80;32.60;;;;;;5012583;28;20026;-76
2022/03/13 10:12:47;;;;;;;2.05;1.95;;;16.90;31.60;;;;;;5010940;28;20030;-76
2022/03/13 10:15:13;;;;;;;7.28;6.10;;;17.40;31.80;;;;;;5012067;28;20049;-75
2022/03/13 10:17:40;;;;;;;0.95;0.88;;;17.50;30.60;;;;;;5010821;28;20030;-76
2022/03/13 10:20:25;;;;;;;2.42;1.17;;;17.80;30.90;;;;;;5011935;28;20030;-75
2022/03/13 10:23:00;;;;;;;1.33;1.23;;;18.10;30.30;;;;;;5011978;28;20048;-75
2022/03/13 10:25:33;;;;;;;0.90;0.35;;;18.40;30.00;;;;;;5010829;28;20076;-76
2022/03/13 10:28:14;;;;;;;0.75;0.50;;;18.70;29.20;;;;;;5011966;28;20543;-76
2022/03/13 10:30:42;;;;;;;1.60;1.50;;;18.70;28.80;;;;;;5011948;28;20032;-75
2022/03/13 10:33:08;;;;;;;2.05;1.17;;;19.10;29.40;;;;;;5013166;28;20034;-76
2022/03/13 10:35:38;;;;;;;0.45;0.45;;;19.30;29.00;;;;;;5014419;28;20045;-75
2022/03/13 10:38:14;;;;;;;2.20;1.50;;;19.70;28.90;;;;;;5015618;28;20022;-75
2022/03/13 10:40:39;;;;;;;6.22;3.30;;;19.70;28.00;;;;;;5014185;28;20061;-77
2022/03/13 10:43:06;;;;;;;0.80;0.80;;;19.90;28.70;;;;;;5014185;28;20045;-75
2022/03/13 10:45:37;;;;;;;0.22;0.22;;;20.20;28.10;;;;;;5015131;28;20026;-75
2022/03/13 10:48:28;;;;;;;2.95;2.05;;;20.20;28.30;;;;;;5015429;28;20014;-76
2022/03/13 10:50:56;;;;;;;3.17;2.20;;;20.50;28.60;;;;;;5015246;28;20038;-75
2022/03/13 10:53:22;;;;;;;1.17;0.75;;;20.50;29.50;;;;;;5014130;28;20025;-76
2022/03/13 10:56:11;;;;;;;3.10;1.00;;;20.00;31.80;;;;;;5015069;28;20149;-75
2022/03/13 10:58:47;;;;;;;3.72;2.45;;;20.50;31.20;;;;;;5014129;28;20438;-75
2022/03/13 11:01:16;;;;;;;2.92;2.58;;;20.30;30.60;;;;;;5013745;28;20026;-76
2022/03/13 11:04:01;;;;;;;3.42;1.45;;;20.20;31.10;;;;;;5013832;28;20436;-75
2022/03/13 11:06:27;;;;;;;1.60;1.50;;;20.40;31.10;;;;;;5013781;28;20018;-76
2022/03/13 11:08:55;;;;;;;0.10;0.10;;;20.50;31.70;;;;;;5015023;28;20510;-76
2022/03/13 11:11:27;;;;;;;5.20;4.25;;;20.80;30.60;;;;;;5013602;28;20389;-75
2022/03/13 11:13:55;;;;;;;1.75;1.52;;;20.20;31.20;;;;;;5013509;28;20030;-75
2022/03/13 11:16:26;;;;;;;23.67;1.65;;;20.50;30.40;;;;;;5013404;28;20026;-75
2022/03/13 11:18:55;;;;;;;2.40;1.17;;;20.10;31.00;;;;;;5014942;28;20018;-75
2022/03/13 11:21:22;;;;;;;0.47;0.45;;;20.60;31.80;;;;;;5013350;28;20026;-76
2022/03/13 11:23:49;;;;;;;1.45;0.85;;;21.00;30.30;;;;;;5014588;28;20025;-76
2022/03/13 11:26:18;;;;;;;4.50;0.80;;;21.50;29.80;;;;;;5013247;28;20481;-76
2022/03/13 11:28:46;;;;;;;7.65;3.17;;;21.10;30.00;;;;;;5014681;28;20101;-75
2022/03/13 11:31:41;;;;;;;3.70;1.65;;;20.30;29.80;;;;;;5014544;28;20107;-76
2022/03/13 11:34:16;;;;;;;3.38;0.98;;;20.40;30.00;;;;;;5084301;22;20129;-72
2022/03/13 11:36:47;;;;;;;5.63;1.70;;;21.00;29.90;;;;;;5014275;28;20050;-72
2022/03/13 11:39:31;;;;;;;1.55;1.45;;;21.20;29.30;;;;;;5014571;28;20021;-72
2022/03/13 11:41:58;;;;;;;1.10;0.70;;;21.20;29.00;;;;;;5014460;28;20045;-73
2022/03/13 11:44:25;;;;;;;2.72;1.95;;;21.50;28.80;;;;;;5014040;28;20140;-72
2022/03/13 11:46:55;;;;;;;8.55;3.13;;;21.70;28.80;;;;;;5014312;28;20492;-72
2022/03/13 11:49:30;;;;;;;4.75;3.65;;;20.80;28.80;;;;;;5014105;28;20026;-72
2022/03/13 11:52:16;;;;;;;1.02;0.98;;;20.50;29.50;;;;;;5014552;28;20030;-72
2022/03/13 11:54:49;;;;;;;2.13;1.58;;;20.80;29.60;;;;;;5014179;28;20454;-72
2022/03/13 11:57:17;;;;;;;2.75;0.43;;;20.90;29.40;;;;;;5014437;28;20018;-72
2022/03/13 11:59:48;;;;;;;2.33;1.40;;;20.70;29.40;;;;;;5014180;28;20030;-72
2022/03/13 12:02:40;;;;;;;1.52;0.85;;;20.80;29.60;;;;;;5012677;28;20413;-72
2022/03/13 12:05:24;;;;;;;7.88;3.67;;;21.30;29.00;;;;;;5012395;28;20025;-72
2022/03/13 12:08:05;;;;;;;0.30;0.28;;;21.20;28.10;;;;;;5013840;28;20050;-72
2022/03/13 12:10:42;;;;;;;0.25;0.25;;;21.50;28.50;;;;;;5014117;28;20068;-72
2022/03/13 12:13:13;;;;;;;0.20;0.20;;;21.30;28.30;;;;;;5012440;28;20183;-72
2022/03/13 12:15:41;;;;;;;5.25;3.40;;;20.70;28.70;;;;;;5013853;28;20030;-72
2022/03/13 12:18:27;;;;;;;3.20;2.80;;;21.10;28.80;;;;;;5013644;28;20048;-72
2022/03/13 12:21:04;;;;;;;0.40;0.40;;;20.80;28.40;;;;;;5013662;28;20022;-72
2022/03/13 12:23:36;;;;;;;0.30;0.30;;;21.30;28.10;;;;;;5012357;28;20141;-72
2022/03/13 12:26:27;;;;;;;4.22;1.25;;;21.20;27.90;;;;;;5013657;28;20517;-72
2022/03/13 12:28:58;;;;;;;3.63;1.08;;;21.10;28.40;;;;;;5012303;28;20436;-72
2022/03/13 12:31:24;;;;;;;6.93;0.50;;;20.90;28.40;;;;;;5013731;28;20025;-72
2022/03/13 12:33:53;;;;;;;0.90;0.90;;;21.20;28.60;;;;;;5012070;28;20042;-73
2022/03/13 12:36:20;;;;;;;2.05;1.20;;;20.70;28.80;;;;;;5013239;28;20025;-72
2022/03/13 12:38:53;;;;;;;4.80;4.47;;;20.90;28.50;;;;;;5013244;28;20053;-72
2022/03/13 12:41:23;;;;;;;2.00;0.43;;;21.00;28.10;;;;;;5013214;28;20037;-72
2022/03/13 12:43:56;;;;;;;0.75;0.55;;;21.00;28.30;;;;;;5011945;28;20137;-72
2022/03/13 12:46:28;;;;;;;0.30;0.30;;;20.90;28.40;;;;;;5013227;28;20026;-72
2022/03/13 12:48:59;;;;;;;0.10;0.10;;;20.40;28.40;;;;;;5013155;28;20030;-72
2022/03/13 12:51:34;;;;;;;2.93;2.10;;;20.40;28.50;;;;;;5013129;28;20022;-72
2022/03/13 12:54:06;;;;;;;5.07;1.58;;;19.80;28.50;;;;;;5013095;28;20038;-72
2022/03/13 12:56:33;;;;;;;1.35;1.27;;;19.60;29.10;;;;;;5012782;28;20048;-72